Brownlee, Nebraska
Current Conditions -  °F | °C
As of 11:15 AM on Thursday 30 Oct 2014 (Local Time) from KTIF Reporting Station
Clear Clear  
Wind Chill: 56°   Ceiling: Unl
Heat Index: 56°   Visibility: 10mi
Dew Point: 34°   Wind: 22mph
Humidity: 44%   Direction: 340°NNW
Pressure: 30.25"   Gusts: 31mph
Location:  41.9263°N, 100.558°W
Report Text: KTIF 301615Z AUTO 34019G27KT 10SM CLR 13/01 A3025 RMK AO2 T01320012
Loading
Personal Weather Stations






























Interactive Weather Map
Tropical Storm Tracking
New forecast layout! Learn more

10-Day Weather Forecast

Advertisements
Track Severe Weather on mobile